Time;durP1;ratioP1;P1;durP2;ratioP2;P2;SDS_P1;SDS_P2;PMS_P1;PMS_P2;Temp;Humidity;BMP_temperature;BMP_pressure;BME280_temperature;BME280_humidity;BME280_pressure;Samples;Min_cycle;Max_cycle;Signal;HPM_P1;HPM_P2
2022/08/16 00:03:00;;;;;;;8.73;7.38;;;24.30;89.60;;;;;;10316038;28;20026;-63
2022/08/16 00:08:01;;;;;;;8.43;7.53;;;24.30;89.70;;;;;;10314590;28;20046;-63
2022/08/16 00:13:06;;;;;;;10.52;7.82;;;24.30;89.80;;;;;;10318948;28;20398;-63
2022/08/16 00:18:08;;;;;;;9.88;7.30;;;24.20;89.70;;;;;;10315792;28;20027;-63
2022/08/16 00:23:09;;;;;;;10.10;7.70;;;24.20;89.80;;;;;;10321834;28;20042;-62
2022/08/16 00:28:10;;;;;;;9.93;7.40;;;24.20;89.80;;;;;;10325092;28;20025;-63
2022/08/16 00:33:11;;;;;;;7.93;7.13;;;24.20;89.80;;;;;;10312190;28;20022;-63
2022/08/16 00:38:12;;;;;;;9.23;7.20;;;24.20;89.90;;;;;;10314080;28;20100;-63
2022/08/16 00:43:16;;;;;;;8.15;7.20;;;24.20;90.00;;;;;;10305680;28;20022;-62
2022/08/16 00:48:18;;;;;;;8.18;7.32;;;24.20;90.00;;;;;;10318067;28;20482;-64
2022/08/16 00:53:19;;;;;;;9.38;7.57;;;24.10;89.90;;;;;;10320290;28;20595;-62
2022/08/16 00:58:22;;;;;;;9.48;7.32;;;24.10;90.00;;;;;;10311939;28;20065;-63
2022/08/16 01:03:26;;;;;;;8.75;7.40;;;24.10;90.00;;;;;;10312640;28;20030;-63
2022/08/16 01:08:27;;;;;;;8.80;7.65;;;24.10;90.00;;;;;;10316814;28;20053;-63
2022/08/16 01:13:31;;;;;;;9.25;7.22;;;24.10;90.30;;;;;;10298518;28;20051;-63
2022/08/16 01:18:47;;;;;;;9.85;7.75;;;24.10;90.00;;;;;;10312945;28;20212;-63
2022/08/16 01:24:15;;;;;;;9.45;7.68;;;24.10;90.10;;;;;;10314904;28;20022;-62
2022/08/16 01:29:26;;;;;;;10.38;7.65;;;24.00;90.00;;;;;;10318204;28;20041;-62
2022/08/16 01:34:26;;;;;;;10.25;6.95;;;24.00;90.00;;;;;;10312309;28;20054;-62
2022/08/16 01:39:28;;;;;;;7.95;7.10;;;24.00;90.10;;;;;;10311787;28;20042;-62
2022/08/16 01:44:29;;;;;;;9.07;7.30;;;24.00;90.10;;;;;;10314554;28;20035;-62
2022/08/16 01:49:40;;;;;;;9.05;7.22;;;24.00;90.10;;;;;;10315577;28;20384;-62
2022/08/16 01:54:41;;;;;;;8.57;7.30;;;24.00;90.10;;;;;;10320196;28;20117;-62
2022/08/16 01:59:41;;;;;;;9.02;7.35;;;23.90;90.10;;;;;;10323519;28;20041;-62
2022/08/16 02:04:42;;;;;;;8.75;7.70;;;23.90;90.10;;;;;;10319862;28;21452;-62
2022/08/16 02:09:44;;;;;;;8.35;7.18;;;23.90;90.10;;;;;;10319641;28;20043;-62
2022/08/16 02:14:45;;;;;;;9.07;7.35;;;23.90;90.10;;;;;;10325870;28;20033;-62
2022/08/16 02:19:47;;;;;;;8.07;7.28;;;23.90;90.20;;;;;;10330350;28;20042;-63
2022/08/16 02:24:49;;;;;;;8.90;7.22;;;23.90;90.20;;;;;;10323273;28;20574;-62
2022/08/16 02:29:50;;;;;;;9.93;7.38;;;23.80;90.20;;;;;;10321886;28;20794;-63
2022/08/16 02:34:50;;;;;;;8.93;7.40;;;23.80;90.20;;;;;;10319097;28;20073;-62
2022/08/16 02:39:51;;;;;;;7.75;6.68;;;23.80;90.20;;;;;;10317519;28;20031;-62
2022/08/16 02:44:52;;;;;;;8.30;7.32;;;23.80;90.20;;;;;;10331901;28;20386;-62
2022/08/16 02:49:53;;;;;;;9.43;7.15;;;23.70;90.20;;;;;;10320416;28;20072;-62
2022/08/16 02:54:53;;;;;;;7.88;6.78;;;23.70;90.20;;;;;;10302112;28;20122;-62
2022/08/16 02:59:54;;;;;;;8.35;7.38;;;23.70;90.20;;;;;;10319162;28;20041;-62
2022/08/16 03:04:55;;;;;;;7.72;6.93;;;23.70;90.20;;;;;;10316061;28;20026;-62
2022/08/16 03:09:56;;;;;;;9.07;7.13;;;23.60;90.10;;;;;;10315865;28;20050;-63
2022/08/16 03:14:59;;;;;;;8.05;6.65;;;23.60;90.20;;;;;;10328133;28;20034;-63
2022/08/16 03:20:00;;;;;;;8.38;6.75;;;23.60;90.10;;;;;;10323981;28;20084;-62
2022/08/16 03:25:50;;;;;;;7.38;6.60;;;23.60;90.10;;;;;;10322315;28;20556;-63
2022/08/16 03:30:52;;;;;;;7.55;6.72;;;23.50;90.10;;;;;;10313887;28;20062;-62
2022/08/16 03:35:58;;;;;;;9.65;7.20;;;23.50;90.40;;;;;;10315977;28;20027;-63
2022/08/16 03:40:59;;;;;;;8.13;6.72;;;23.50;90.10;;;;;;10319578;28;20483;-63
2022/08/16 03:46:00;;;;;;;8.13;6.78;;;23.50;90.10;;;;;;10320015;28;20022;-63
2022/08/16 03:51:03;;;;;;;11.00;7.30;;;23.40;90.00;;;;;;10314614;28;20109;-63
2022/08/16 03:56:06;;;;;;;8.05;6.90;;;23.40;90.00;;;;;;10325388;28;20577;-62
2022/08/16 04:01:07;;;;;;;10.45;7.85;;;23.40;90.00;;;;;;10313652;28;20383;-63
2022/08/16 04:06:08;;;;;;;10.35;6.95;;;23.40;90.00;;;;;;10322212;28;20030;-63
2022/08/16 04:11:08;;;;;;;8.32;6.78;;;23.30;90.00;;;;;;10323200;28;20055;-63
2022/08/16 04:16:11;;;;;;;8.43;7.53;;;23.30;90.00;;;;;;10324533;28;20530;-63
2022/08/16 04:21:11;;;;;;;8.27;7.05;;;23.30;90.00;;;;;;10315011;28;20407;-62
2022/08/16 04:26:12;;;;;;;9.43;6.45;;;23.30;90.00;;;;;;10326863;28;20030;-63
2022/08/16 04:31:13;;;;;;;10.30;7.70;;;23.30;90.00;;;;;;10318722;28;20125;-63
2022/08/16 04:36:14;;;;;;;8.05;7.25;;;23.30;90.00;;;;;;10314228;28;20069;-63
2022/08/16 04:41:15;;;;;;;9.23;6.45;;;23.20;90.00;;;;;;10312159;28;20041;-62
2022/08/16 04:46:16;;;;;;;9.85;6.68;;;23.20;90.20;;;;;;10295729;28;20190;-63
2022/08/16 04:51:16;;;;;;;9.57;6.90;;;23.20;89.90;;;;;;10234064;28;20289;-63
2022/08/16 04:56:18;;;;;;;8.77;6.60;;;23.20;89.90;;;;;;10254927;28;20472;-63
2022/08/16 05:01:19;;;;;;;8.07;7.22;;;23.20;89.80;;;;;;10245248;28;20477;-62
2022/08/16 05:06:20;;;;;;;9.90;6.88;;;23.10;89.60;;;;;;10243651;28;20121;-62
2022/08/16 05:11:21;;;;;;;8.15;6.57;;;23.10;89.60;;;;;;10252926;28;20121;-63
2022/08/16 05:16:28;;;;;;;8.07;7.00;;;23.10;89.50;;;;;;10261543;28;20501;-63
2022/08/16 05:21:30;;;;;;;8.83;7.07;;;23.10;89.50;;;;;;10262690;28;20435;-63
2022/08/16 05:26:32;;;;;;;8.40;6.78;;;23.10;89.40;;;;;;10244083;28;20072;-63
2022/08/16 05:31:33;;;;;;;7.05;6.20;;;23.10;89.40;;;;;;10241289;28;20038;-63
2022/08/16 05:36:33;;;;;;;6.97;6.22;;;23.00;89.20;;;;;;10245391;28;20120;-64
2022/08/16 05:41:35;;;;;;;8.20;6.30;;;23.10;89.30;;;;;;10252117;28;20081;-63
2022/08/16 05:46:36;;;;;;;9.38;6.15;;;23.10;89.20;;;;;;10242652;28;20023;-62
2022/08/16 05:51:37;;;;;;;11.30;6.35;;;23.00;89.10;;;;;;10239467;28;20535;-62
2022/08/16 05:56:40;;;;;;;9.10;6.60;;;23.00;88.90;;;;;;10243287;28;20265;-63
2022/08/16 06:01:43;;;;;;;13.02;8.57;;;23.00;89.00;;;;;;10233981;28;20038;-63
2022/08/16 06:06:47;;;;;;;16.70;10.23;;;23.00;89.50;;;;;;10217153;28;20022;-64
2022/08/16 06:11:48;;;;;;;16.38;11.15;;;22.90;90.20;;;;;;10232978;28;20465;-64
2022/08/16 06:16:49;;;;;;;18.40;11.65;;;22.60;90.50;;;;;;10236267;28;20038;-64
2022/08/16 06:21:49;;;;;;;17.38;11.52;;;22.40;91.00;;;;;;10233319;28;20042;-64
2022/08/16 06:26:50;;;;;;;18.27;11.88;;;22.30;91.50;;;;;;10250682;28;20038;-64
2022/08/16 06:31:51;;;;;;;19.98;12.00;;;22.20;91.70;;;;;;10237346;28;20502;-64
2022/08/16 06:36:52;;;;;;;15.52;10.27;;;22.20;91.80;;;;;;10235089;28;20345;-62
2022/08/16 06:41:53;;;;;;;12.63;9.07;;;22.30;91.90;;;;;;10241098;28;20109;-62
2022/08/16 06:46:54;;;;;;;14.13;9.85;;;22.40;91.60;;;;;;10239921;28;20084;-62
2022/08/16 06:51:55;;;;;;;15.20;9.90;;;22.60;91.50;;;;;;10241474;28;20408;-63
2022/08/16 06:56:56;;;;;;;14.38;9.30;;;22.70;91.60;;;;;;10224931;28;20177;-63
2022/08/16 07:01:58;;;;;;;11.90;8.43;;;22.80;91.20;;;;;;10240419;28;20633;-63
2022/08/16 07:06:59;;;;;;;11.27;8.95;;;22.90;91.10;;;;;;10238974;28;20473;-63
2022/08/16 07:12:00;;;;;;;10.55;8.02;;;22.90;90.90;;;;;;10245055;28;20050;-63
2022/08/16 07:17:02;;;;;;;10.82;7.47;;;23.00;90.80;;;;;;10241841;28;20490;-63
2022/08/16 07:22:03;;;;;;;9.63;7.82;;;23.00;90.70;;;;;;10240483;28;20336;-63
2022/08/16 07:27:07;;;;;;;9.38;7.38;;;23.10;90.60;;;;;;10236742;28;20065;-62
2022/08/16 07:32:08;;;;;;;11.63;7.82;;;23.10;90.50;;;;;;10238276;28;20133;-63
2022/08/16 07:37:10;;;;;;;9.57;7.80;;;23.10;90.40;;;;;;10237950;28;20153;-62
2022/08/16 07:42:11;;;;;;;10.20;7.45;;;23.10;90.30;;;;;;10239491;28;20034;-62
2022/08/16 07:47:12;;;;;;;9.63;7.45;;;23.10;90.20;;;;;;10228381;28;20160;-62
2022/08/16 07:52:12;;;;;;;10.80;7.25;;;23.20;90.10;;;;;;10236333;28;20085;-62
2022/08/16 07:57:13;;;;;;;11.73;7.20;;;23.30;90.10;;;;;;10241253;28;20019;-62
2022/08/16 08:02:14;;;;;;;9.90;6.97;;;23.30;90.00;;;;;;10237784;28;20495;-62
2022/08/16 08:07:15;;;;;;;13.13;7.72;;;23.30;90.00;;;;;;10240838;28;20452;-62
2022/08/16 08:12:18;;;;;;;9.27;8.25;;;23.30;89.90;;;;;;10236349;28;20523;-62
2022/08/16 08:17:19;;;;;;;11.57;8.57;;;23.40;89.80;;;;;;10238210;28;20041;-63
2022/08/16 08:22:21;;;;;;;14.45;8.05;;;23.40;89.70;;;;;;10239539;28;20069;-63
2022/08/16 08:27:23;;;;;;;9.23;7.18;;;23.40;89.60;;;;;;10241666;28;20046;-64
2022/08/16 08:32:27;;;;;;;9.30;7.97;;;23.50;89.50;;;;;;10220414;28;20467;-63
2022/08/16 08:37:27;;;;;;;10.55;7.78;;;23.50;89.40;;;;;;10243803;28;20122;-63
2022/08/16 08:42:28;;;;;;;9.82;7.80;;;23.50;89.20;;;;;;10235501;28;20288;-64
2022/08/16 08:47:29;;;;;;;10.02;7.68;;;23.60;89.20;;;;;;10239543;28;20058;-63
2022/08/16 08:52:30;;;;;;;10.55;7.97;;;23.60;89.00;;;;;;10236289;28;20409;-61
2022/08/16 08:57:31;;;;;;;10.80;7.95;;;23.60;88.90;;;;;;10237356;28;20558;-62
2022/08/16 09:02:32;;;;;;;10.10;7.43;;;23.60;88.70;;;;;;10238717;28;20046;-62
2022/08/16 09:07:32;;;;;;;10.23;8.30;;;23.70;88.70;;;;;;10234484;28;20492;-63
2022/08/16 09:12:34;;;;;;;10.18;8.55;;;23.70;88.40;;;;;;10233261;28;20054;-62
2022/08/16 09:17:36;;;;;;;9.98;7.70;;;23.80;88.40;;;;;;10242234;28;20045;-62
2022/08/16 09:22:37;;;;;;;8.68;7.47;;;23.80;88.20;;;;;;10236122;28;20161;-62
2022/08/16 09:27:38;;;;;;;9.43;8.13;;;23.80;88.10;;;;;;10220268;28;20346;-62
2022/08/16 09:32:39;;;;;;;9.02;7.50;;;23.90;87.90;;;;;;10235155;28;20304;-62
2022/08/16 09:37:40;;;;;;;8.13;7.32;;;23.90;87.80;;;;;;10241761;28;20038;-62
2022/08/16 09:42:42;;;;;;;8.30;7.15;;;24.00;87.60;;;;;;10240551;28;20046;-62
2022/08/16 09:47:42;;;;;;;9.00;7.80;;;24.20;87.50;;;;;;10237763;28;20609;-62
2022/08/16 09:52:43;;;;;;;9.57;7.35;;;24.00;87.10;;;;;;10236783;28;20121;-62
2022/08/16 09:57:44;;;;;;;8.63;7.13;;;24.10;86.90;;;;;;10237623;28;20475;-62
2022/08/16 10:02:46;;;;;;;8.05;6.93;;;24.10;86.70;;;;;;10236993;28;20149;-62
2022/08/16 10:07:51;;;;;;;8.13;6.60;;;24.20;86.40;;;;;;10239784;28;20039;-62
2022/08/16 10:18:13;;;;;;;7.60;6.30;;;24.20;85.80;;;;;;10200072;28;20308;-62
2022/08/16 10:23:17;;;;;;;9.18;6.43;;;24.30;85.60;;;;;;10200543;28;20324;-62
2022/08/16 10:28:19;;;;;;;7.90;6.50;;;24.40;85.40;;;;;;10201886;28;20145;-63
2022/08/16 10:33:19;;;;;;;9.05;6.20;;;24.50;85.30;;;;;;10198288;28;20334;-63
2022/08/16 10:38:20;;;;;;;7.72;6.15;;;24.50;85.00;;;;;;10200461;28;20137;-63
2022/08/16 10:43:22;;;;;;;9.00;6.20;;;24.50;84.80;;;;;;10201054;28;20391;-62
2022/08/16 10:48:23;;;;;;;7.38;5.97;;;24.60;84.60;;;;;;10196146;28;20243;-62
2022/08/16 10:53:28;;;;;;;7.57;6.03;;;24.60;84.30;;;;;;10197786;28;20572;-63
2022/08/16 10:58:30;;;;;;;6.97;5.97;;;24.70;84.00;;;;;;10200590;28;20035;-62
2022/08/16 11:03:32;;;;;;;6.03;5.40;;;24.70;83.70;;;;;;10196777;28;20546;-62
2022/08/16 11:08:35;;;;;;;5.72;5.15;;;24.80;83.40;;;;;;10203992;28;20053;-62
2022/08/16 11:13:36;;;;;;;6.97;5.35;;;24.80;83.10;;;;;;10242039;28;20037;-63
2022/08/16 11:18:37;;;;;;;6.45;5.68;;;24.90;82.80;;;;;;10254117;28;20557;-62
2022/08/16 11:23:38;;;;;;;6.18;5.03;;;25.00;82.60;;;;;;10242273;28;20487;-63
2022/08/16 11:28:39;;;;;;;6.22;5.63;;;25.10;82.40;;;;;;10243115;28;20153;-62
2022/08/16 11:33:40;;;;;;;6.78;5.00;;;25.10;82.20;;;;;;10243087;28;20172;-62
2022/08/16 11:38:41;;;;;;;6.90;5.68;;;25.20;82.10;;;;;;10236798;28;20465;-63
2022/08/16 11:43:41;;;;;;;5.90;5.20;;;25.20;82.00;;;;;;10246524;28;20124;-63
2022/08/16 11:48:44;;;;;;;6.20;5.50;;;25.30;81.90;;;;;;10230498;28;20049;-63
2022/08/16 11:53:45;;;;;;;6.50;5.53;;;25.40;81.80;;;;;;10243510;28;20050;-63
2022/08/16 11:58:46;;;;;;;6.63;5.63;;;25.50;81.70;;;;;;10246092;28;20220;-63
2022/08/16 12:03:46;;;;;;;6.03;5.18;;;25.50;81.50;;;;;;10247815;28;20049;-63
2022/08/16 12:08:49;;;;;;;7.65;5.95;;;25.60;81.40;;;;;;10240037;28;20320;-63
2022/08/16 12:13:52;;;;;;;7.78;5.78;;;25.70;81.20;;;;;;10244153;28;20519;-63
2022/08/16 12:18:52;;;;;;;7.07;5.85;;;25.70;81.10;;;;;;10221843;28;20038;-63
2022/08/16 12:23:53;;;;;;;6.22;5.55;;;25.80;81.20;;;;;;10240964;28;20038;-63
2022/08/16 12:28:54;;;;;;;7.50;6.13;;;25.90;81.10;;;;;;10239154;28;20054;-63
2022/08/16 12:33:54;;;;;;;5.95;5.32;;;25.90;81.10;;;;;;10244484;28;20486;-63
2022/08/16 12:38:56;;;;;;;5.60;5.07;;;25.90;81.10;;;;;;10241809;28;20050;-63
2022/08/16 12:43:57;;;;;;;7.40;6.38;;;26.00;81.10;;;;;;10236070;28;20084;-63
2022/08/16 12:49:02;;;;;;;6.85;5.82;;;26.10;80.90;;;;;;10236046;28;20535;-63
2022/08/16 12:54:06;;;;;;;6.75;5.95;;;26.20;80.60;;;;;;10240660;28;20372;-63
2022/08/16 12:59:10;;;;;;;9.18;5.75;;;26.30;80.40;;;;;;10235704;28;20384;-66
2022/08/16 13:04:11;;;;;;;6.95;6.25;;;26.40;80.40;;;;;;10237186;28;20727;-63
2022/08/16 13:09:23;;;;;;;6.30;5.70;;;26.40;80.30;;;;;;10220942;28;20054;-63
2022/08/16 13:14:28;;;;;;;6.28;5.68;;;26.50;80.20;;;;;;10238812;28;20033;-63
2022/08/16 13:19:29;;;;;;;6.78;5.93;;;26.50;80.20;;;;;;10241308;28;20143;-63
2022/08/16 13:24:30;;;;;;;7.18;6.15;;;26.50;80.40;;;;;;10240816;28;20440;-63
2022/08/16 13:29:31;;;;;;;8.93;5.88;;;26.60;80.50;;;;;;10235385;28;20121;-62
2022/08/16 13:34:31;;;;;;;8.93;6.35;;;26.70;80.60;;;;;;10235602;28;20034;-62
2022/08/16 13:39:33;;;;;;;6.80;6.10;;;26.70;80.50;;;;;;10237264;28;20406;-62
2022/08/16 13:44:35;;;;;;;7.45;5.75;;;26.80;80.60;;;;;;10232343;28;20617;-62
2022/08/16 13:49:36;;;;;;;7.45;6.05;;;26.90;80.60;;;;;;10232752;28;20143;-62
2022/08/16 13:54:37;;;;;;;8.43;6.43;;;27.00;80.60;;;;;;10217467;28;20146;-62
2022/08/16 13:59:38;;;;;;;6.63;6.00;;;27.10;80.70;;;;;;10236033;28;20458;-61
2022/08/16 14:04:41;;;;;;;7.45;6.60;;;27.20;80.70;;;;;;10229466;28;20506;-62
2022/08/16 14:09:42;;;;;;;7.65;6.32;;;27.20;80.70;;;;;;10190055;28;1296853;-63
2022/08/16 14:14:43;;;;;;;9.52;6.45;;;27.20;80.80;;;;;;10235894;28;20027;-63
2022/08/16 14:19:44;;;;;;;7.50;6.35;;;27.30;81.00;;;;;;10244101;28;20041;-62
2022/08/16 14:24:47;;;;;;;7.32;6.60;;;27.30;81.00;;;;;;10232424;28;20054;-63
2022/08/16 14:29:49;;;;;;;7.18;6.47;;;27.30;81.20;;;;;;10240512;28;20042;-62
2022/08/16 14:34:53;;;;;;;7.72;6.45;;;27.20;81.50;;;;;;10233213;28;20030;-62
2022/08/16 14:39:54;;;;;;;7.60;6.82;;;27.10;81.80;;;;;;10244160;28;20137;-65
2022/08/16 14:44:55;;;;;;;8.70;6.93;;;27.10;82.00;;;;;;10239475;28;20605;-62
2022/08/16 14:49:56;;;;;;;7.50;6.65;;;27.10;82.20;;;;;;10237135;28;20037;-65
2022/08/16 14:54:57;;;;;;;7.45;6.57;;;27.10;82.40;;;;;;10241415;28;20034;-65
2022/08/16 14:59:58;;;;;;;7.10;6.47;;;27.10;82.50;;;;;;10247975;28;20077;-65
2022/08/16 15:04:59;;;;;;;7.10;6.40;;;27.10;82.60;;;;;;10241245;28;20026;-64
2022/08/16 15:09:59;;;;;;;7.50;6.70;;;27.10;82.60;;;;;;10237996;28;20482;-64
2022/08/16 15:15:05;;;;;;;7.15;6.35;;;27.10;82.70;;;;;;10236655;28;20138;-65
2022/08/16 15:20:06;;;;;;;7.03;6.38;;;27.10;82.80;;;;;;10236061;28;20046;-64
2022/08/16 15:25:11;;;;;;;7.13;6.47;;;27.10;82.90;;;;;;10233343;28;20057;-64
2022/08/16 15:30:17;;;;;;;7.82;6.57;;;27.10;83.00;;;;;;10222296;28;20209;-64
2022/08/16 15:35:18;;;;;;;8.07;6.75;;;27.10;83.10;;;;;;10234902;28;20047;-64
2022/08/16 15:40:19;;;;;;;7.63;6.93;;;27.20;83.10;;;;;;10239594;28;20107;-64
2022/08/16 15:50:42;;;;;;;7.13;6.43;;;27.30;83.00;;;;;;10244786;28;20302;-64
2022/08/16 15:55:44;;;;;;;7.03;6.32;;;27.30;83.00;;;;;;10243348;28;20393;-64
2022/08/16 16:00:44;;;;;;;7.88;7.15;;;27.30;83.00;;;;;;10250257;28;20057;-64
2022/08/16 16:05:48;;;;;;;7.28;6.45;;;27.30;83.00;;;;;;10250423;28;20129;-64
2022/08/16 16:10:49;;;;;;;7.78;6.88;;;27.30;83.10;;;;;;10232313;28;20522;-64
2022/08/16 16:15:52;;;;;;;8.15;6.53;;;27.20;83.20;;;;;;10246955;28;20026;-64
2022/08/16 16:20:57;;;;;;;7.95;6.45;;;27.20;83.30;;;;;;10244955;28;20133;-65
2022/08/16 16:25:59;;;;;;;10.13;7.18;;;27.10;83.30;;;;;;10248365;28;20149;-64
2022/08/16 16:31:00;;;;;;;7.25;6.55;;;27.10;83.40;;;;;;10243390;28;20774;-64
2022/08/16 16:36:02;;;;;;;7.53;6.88;;;27.10;83.50;;;;;;10247806;28;20037;-65
2022/08/16 16:41:08;;;;;;;7.72;6.93;;;27.10;83.60;;;;;;10243348;28;20640;-65
2022/08/16 16:46:12;;;;;;;7.78;7.07;;;27.10;83.50;;;;;;10247396;28;20430;-65
2022/08/16 16:51:13;;;;;;;8.25;7.30;;;27.10;83.60;;;;;;10243512;28;20602;-64
2022/08/16 16:56:16;;;;;;;7.90;6.90;;;27.00;83.50;;;;;;10242444;28;20034;-64
2022/08/16 17:01:16;;;;;;;7.72;6.93;;;27.00;83.50;;;;;;10242917;28;20630;-65
2022/08/16 17:06:17;;;;;;;8.32;7.53;;;27.00;83.60;;;;;;10243603;28;20042;-64
2022/08/16 17:11:19;;;;;;;7.93;7.13;;;27.00;83.70;;;;;;10240321;28;20049;-64
2022/08/16 17:16:21;;;;;;;8.10;7.30;;;27.00;83.80;;;;;;10247711;28;20042;-65
2022/08/16 17:21:22;;;;;;;9.10;7.15;;;26.90;83.70;;;;;;10245188;28;20189;-66
2022/08/16 17:26:23;;;;;;;7.82;7.07;;;26.90;83.90;;;;;;10247648;28;20566;-65
2022/08/16 17:31:23;;;;;;;8.85;7.57;;;26.80;84.00;;;;;;10246506;28;20030;-64
2022/08/16 17:36:24;;;;;;;7.32;6.63;;;26.80;84.00;;;;;;10246917;28;20026;-64
2022/08/16 17:41:26;;;;;;;7.80;7.10;;;26.70;84.20;;;;;;10248102;28;20504;-64
2022/08/16 17:46:26;;;;;;;7.78;6.97;;;26.70;84.20;;;;;;10246327;28;20186;-65
2022/08/16 17:51:27;;;;;;;7.95;7.15;;;26.70;84.30;;;;;;10245760;28;20034;-64
2022/08/16 17:56:28;;;;;;;10.13;8.25;;;26.70;84.30;;;;;;10226955;28;20431;-64
2022/08/16 18:01:29;;;;;;;9.48;8.07;;;26.60;84.50;;;;;;10239342;28;20048;-65
2022/08/16 18:06:30;;;;;;;9.90;8.60;;;26.50;84.50;;;;;;10242068;28;20383;-64
2022/08/16 18:11:37;;;;;;;9.55;8.10;;;26.50;84.60;;;;;;10244602;28;20758;-64
2022/08/16 18:16:39;;;;;;;9.48;8.48;;;26.50;84.60;;;;;;10242692;28;20842;-63
2022/08/16 18:27:00;;;;;;;9.70;8.70;;;26.40;84.70;;;;;;10238286;28;20073;-64
2022/08/16 18:32:04;;;;;;;8.70;7.80;;;26.40;84.80;;;;;;10246544;28;20057;-64
2022/08/16 18:37:05;;;;;;;9.13;7.75;;;26.40;84.90;;;;;;10245576;28;20113;-64
2022/08/16 18:42:14;;;;;;;8.50;7.57;;;26.30;84.90;;;;;;10248385;28;20136;-63
2022/08/16 18:47:15;;;;;;;8.82;7.95;;;26.30;85.00;;;;;;10248183;28;20237;-64
2022/08/16 18:52:16;;;;;;;9.60;7.90;;;26.20;85.10;;;;;;10251848;28;20362;-64
2022/08/16 18:57:16;;;;;;;9.05;8.15;;;26.20;85.20;;;;;;10246495;28;20038;-64
2022/08/16 19:02:24;;;;;;;8.35;7.45;;;26.10;85.20;;;;;;10252454;28;20057;-64
2022/08/16 19:07:25;;;;;;;9.27;8.38;;;26.10;85.20;;;;;;10248541;28;20033;-64
2022/08/16 19:12:26;;;;;;;8.48;7.68;;;26.10;85.30;;;;;;10241973;28;20120;-64
2022/08/16 19:17:27;;;;;;;8.77;7.93;;;26.00;85.30;;;;;;10238681;28;20106;-64
2022/08/16 19:22:32;;;;;;;8.20;7.40;;;26.00;85.40;;;;;;10245149;28;20192;-65
2022/08/16 19:27:33;;;;;;;7.60;6.90;;;25.90;85.40;;;;;;10265008;28;20031;-64
2022/08/16 19:32:36;;;;;;;8.77;7.82;;;25.90;85.40;;;;;;10308692;28;20030;-62
2022/08/16 19:37:37;;;;;;;8.27;7.47;;;25.80;85.40;;;;;;10311085;28;20022;-64
2022/08/16 19:42:38;;;;;;;8.80;7.82;;;25.80;85.40;;;;;;10309257;28;20511;-64
2022/08/16 19:47:39;;;;;;;8.35;7.55;;;25.80;85.40;;;;;;10310182;28;20075;-63
2022/08/16 19:52:40;;;;;;;8.77;7.85;;;25.70;85.40;;;;;;10310220;28;20098;-63
2022/08/16 19:57:44;;;;;;;11.68;8.07;;;25.70;85.40;;;;;;10309723;28;20113;-64
2022/08/16 20:02:49;;;;;;;9.82;7.68;;;25.70;85.50;;;;;;10312219;28;20133;-63
2022/08/16 20:07:50;;;;;;;12.55;8.02;;;25.60;85.40;;;;;;10309725;28;20124;-63
2022/08/16 20:12:53;;;;;;;8.02;7.32;;;25.60;85.40;;;;;;10309709;28;20046;-64
2022/08/16 20:17:55;;;;;;;9.50;8.35;;;25.50;85.30;;;;;;10307354;28;20022;-64
2022/08/16 20:22:56;;;;;;;8.35;7.47;;;25.50;85.90;;;;;;10306511;28;20049;-64
2022/08/16 20:27:58;;;;;;;8.90;8.00;;;25.50;85.30;;;;;;10320481;28;20479;-64
2022/08/16 20:32:59;;;;;;;9.45;8.02;;;25.40;85.30;;;;;;10319854;28;20054;-63
2022/08/16 20:38:00;;;;;;;8.80;8.00;;;25.40;85.30;;;;;;10319874;28;20121;-64
2022/08/16 20:43:09;;;;;;;9.13;8.00;;;25.40;85.90;;;;;;10318711;28;20441;-63
2022/08/16 20:48:09;;;;;;;8.65;7.75;;;25.30;85.20;;;;;;10320180;28;20037;-64
2022/08/16 20:53:10;;;;;;;8.38;7.57;;;25.30;85.20;;;;;;10322007;28;20706;-63
2022/08/16 20:58:11;;;;;;;8.95;7.97;;;25.30;85.30;;;;;;10320869;28;20049;-63
2022/08/16 21:03:12;;;;;;;9.70;8.45;;;25.20;85.30;;;;;;10311732;28;20522;-63
2022/08/16 21:08:14;;;;;;;9.15;8.20;;;25.20;85.30;;;;;;10298901;28;20033;-63
2022/08/16 21:13:16;;;;;;;9.50;8.35;;;25.20;85.40;;;;;;10317004;28;20054;-63
2022/08/16 21:18:17;;;;;;;9.43;8.43;;;25.10;85.30;;;;;;10335602;22;20053;-63
2022/08/16 21:23:18;;;;;;;13.80;8.25;;;25.10;85.30;;;;;;10390982;28;20038;-63
2022/08/16 21:28:18;;;;;;;10.27;8.80;;;25.10;85.20;;;;;;10394531;28;20034;-63
2022/08/16 21:33:19;;;;;;;9.27;8.27;;;25.10;85.20;;;;;;10387342;28;20040;-63
2022/08/16 21:38:21;;;;;;;9.57;8.38;;;25.00;85.20;;;;;;10389011;28;20367;-63
2022/08/16 21:43:22;;;;;;;10.27;8.80;;;25.00;85.20;;;;;;10389709;28;20045;-63
2022/08/16 21:48:23;;;;;;;9.70;8.70;;;25.00;85.20;;;;;;10390491;28;20408;-63
2022/08/16 21:53:28;;;;;;;9.70;8.70;;;25.00;85.20;;;;;;10387632;28;20064;-63
2022/08/16 21:58:30;;;;;;;9.35;8.40;;;24.90;85.20;;;;;;10388417;28;20033;-63
2022/08/16 22:03:31;;;;;;;9.98;8.43;;;24.90;85.20;;;;;;10385803;28;20037;-63
2022/08/16 22:08:33;;;;;;;9.93;8.90;;;24.90;85.20;;;;;;10392655;28;20037;-63
2022/08/16 22:13:34;;;;;;;9.50;8.60;;;24.80;85.20;;;;;;10397071;28;20808;-63
2022/08/16 22:18:34;;;;;;;9.63;8.57;;;24.80;85.20;;;;;;10395019;28;20092;-63
2022/08/16 22:23:35;;;;;;;9.82;8.82;;;24.80;85.30;;;;;;10381124;28;20030;-63
2022/08/16 22:28:36;;;;;;;9.35;8.45;;;24.80;85.30;;;;;;10397532;28;20561;-63
2022/08/16 22:33:37;;;;;;;10.02;8.68;;;24.70;85.30;;;;;;10395609;28;20075;-63
2022/08/16 22:38:38;;;;;;;9.15;8.23;;;24.70;85.30;;;;;;10398675;28;20044;-63
2022/08/16 22:43:39;;;;;;;9.60;8.15;;;24.70;85.30;;;;;;10380007;28;20041;-63
2022/08/16 22:48:39;;;;;;;10.52;8.85;;;24.70;85.30;;;;;;10397343;28;20509;-63
2022/08/16 22:53:40;;;;;;;10.00;9.00;;;24.60;85.40;;;;;;10397625;28;20767;-63
2022/08/16 22:58:41;;;;;;;10.10;9.00;;;24.60;85.40;;;;;;10395232;28;20037;-63
2022/08/16 23:03:42;;;;;;;9.63;8.40;;;24.60;85.40;;;;;;10394556;28;20066;-63
2022/08/16 23:08:43;;;;;;;10.98;8.43;;;24.50;85.40;;;;;;10393556;28;20030;-63
2022/08/16 23:13:44;;;;;;;10.93;9.60;;;24.50;85.40;;;;;;10397890;28;20420;-63
2022/08/16 23:18:46;;;;;;;10.30;8.80;;;24.50;85.40;;;;;;10393475;28;20304;-63
2022/08/16 23:23:47;;;;;;;10.45;9.18;;;24.50;85.50;;;;;;10392495;28;20040;-63
2022/08/16 23:28:48;;;;;;;11.20;8.82;;;24.40;85.50;;;;;;10393516;28;20088;-63
2022/08/16 23:33:49;;;;;;;10.35;9.13;;;24.40;85.50;;;;;;10393643;28;20055;-63
2022/08/16 23:38:50;;;;;;;9.77;8.77;;;24.40;85.50;;;;;;10371890;28;20021;-63
2022/08/16 23:43:50;;;;;;;10.48;9.02;;;24.40;85.50;;;;;;10394270;28;20870;-63
2022/08/16 23:48:51;;;;;;;10.15;9.10;;;24.30;85.50;;;;;;10394035;28;20073;-63
2022/08/16 23:53:54;;;;;;;10.60;9.45;;;24.30;85.50;;;;;;10391321;28;20032;-63
2022/08/16 23:58:55;;;;;;;10.52;9.40;;;24.20;85.50;;;;;;10393029;28;20052;-63
